sensor_id;sensor_type;location;lat;lon;timestamp;temperature;humidity
2855;DHT22;1435;49.472;10.940;2023-10-13T00:03:20;16.70;99.90
2855;DHT22;1435;49.472;10.940;2023-10-13T00:08:24;16.70;99.90
2855;DHT22;1435;49.472;10.940;2023-10-13T00:13:27;16.60;99.90
2855;DHT22;1435;49.472;10.940;2023-10-13T00:18:31;16.60;99.90
2855;DHT22;1435;49.472;10.940;2023-10-13T00:23:36;16.60;99.90
2855;DHT22;1435;49.472;10.940;2023-10-13T00:28:38;16.60;99.90
2855;DHT22;1435;49.472;10.940;2023-10-13T00:33:46;16.50;99.90
2855;DHT22;1435;49.472;10.940;2023-10-13T00:38:51;16.50;99.90
2855;DHT22;1435;49.472;10.940;2023-10-13T00:43:56;16.60;99.90
2855;DHT22;1435;49.472;10.940;2023-10-13T00:49:09;16.50;99.90
2855;DHT22;1435;49.472;10.940;2023-10-13T00:54:13;16.30;99.90
2855;DHT22;1435;49.472;10.940;2023-10-13T00:59:19;16.50;99.90
2855;DHT22;1435;49.472;10.940;2023-10-13T01:04:25;16.50;99.90
2855;DHT22;1435;49.472;10.940;2023-10-13T01:09:40;16.60;99.90
2855;DHT22;1435;49.472;10.940;2023-10-13T01:14:42;16.60;99.90
2855;DHT22;1435;49.472;10.940;2023-10-13T01:19:44;16.60;99.90
2855;DHT22;1435;49.472;10.940;2023-10-13T01:24:50;16.70;99.90
2855;DHT22;1435;49.472;10.940;2023-10-13T01:30:06;16.70;99.90
2855;DHT22;1435;49.472;10.940;2023-10-13T01:35:10;16.70;99.90
2855;DHT22;1435;49.472;10.940;2023-10-13T01:40:13;16.80;99.90
2855;DHT22;1435;49.472;10.940;2023-10-13T01:45:19;16.80;99.90
2855;DHT22;1435;49.472;10.940;2023-10-13T01:50:21;16.80;99.90
2855;DHT22;1435;49.472;10.940;2023-10-13T01:55:30;16.90;99.90
2855;DHT22;1435;49.472;10.940;2023-10-13T02:00:39;16.90;99.90
2855;DHT22;1435;49.472;10.940;2023-10-13T02:05:42;16.90;99.90
2855;DHT22;1435;49.472;10.940;2023-10-13T02:10:49;16.80;99.90
2855;DHT22;1435;49.472;10.940;2023-10-13T02:15:54;16.80;99.90
2855;DHT22;1435;49.472;10.940;2023-10-13T02:21:02;16.80;99.90
2855;DHT22;1435;49.472;10.940;2023-10-13T02:26:06;16.80;99.90
2855;DHT22;1435;49.472;10.940;2023-10-13T02:31:15;16.80;99.90
2855;DHT22;1435;49.472;10.940;2023-10-13T02:36:20;16.70;99.90
2855;DHT22;1435;49.472;10.940;2023-10-13T02:41:25;16.70;99.90
2855;DHT22;1435;49.472;10.940;2023-10-13T02:46:28;16.60;99.90
2855;DHT22;1435;49.472;10.940;2023-10-13T02:51:30;16.60;99.90
2855;DHT22;1435;49.472;10.940;2023-10-13T02:56:37;16.60;99.90
2855;DHT22;1435;49.472;10.940;2023-10-13T03:01:48;16.60;99.90
2855;DHT22;1435;49.472;10.940;2023-10-13T03:06:53;16.60;99.90
2855;DHT22;1435;49.472;10.940;2023-10-13T03:11:56;16.60;99.90
2855;DHT22;1435;49.472;10.940;2023-10-13T03:16:59;16.60;99.90
2855;DHT22;1435;49.472;10.940;2023-10-13T03:22:09;16.60;99.90
2855;DHT22;1435;49.472;10.940;2023-10-13T03:27:13;16.60;99.90
2855;DHT22;1435;49.472;10.940;2023-10-13T03:32:17;16.60;99.90
2855;DHT22;1435;49.472;10.940;2023-10-13T03:37:19;16.70;99.90
2855;DHT22;1435;49.472;10.940;2023-10-13T03:42:38;16.70;99.90
2855;DHT22;1435;49.472;10.940;2023-10-13T03:47:41;16.60;99.90
2855;DHT22;1435;49.472;10.940;2023-10-13T03:52:46;16.60;99.90
2855;DHT22;1435;49.472;10.940;2023-10-13T03:57:50;16.50;99.90
2855;DHT22;1435;49.472;10.940;2023-10-13T04:02:52;16.50;99.90
2855;DHT22;1435;49.472;10.940;2023-10-13T04:08:07;16.50;99.90
2855;DHT22;1435;49.472;10.940;2023-10-13T04:13:28;16.50;99.90
2855;DHT22;1435;49.472;10.940;2023-10-13T04:18:47;16.50;99.90
2855;DHT22;1435;49.472;10.940;2023-10-13T04:23:51;16.50;99.90
2855;DHT22;1435;49.472;10.940;2023-10-13T04:29:25;16.40;99.90
2855;DHT22;1435;49.472;10.940;2023-10-13T04:34:46;16.40;99.90
2855;DHT22;1435;49.472;10.940;2023-10-13T04:39:52;16.40;99.90
2855;DHT22;1435;49.472;10.940;2023-10-13T04:44:59;16.40;99.90
2855;DHT22;1435;49.472;10.940;2023-10-13T04:50:16;16.40;99.90
2855;DHT22;1435;49.472;10.940;2023-10-13T04:55:28;16.40;99.90
2855;DHT22;1435;49.472;10.940;2023-10-13T05:00:54;16.30;99.90
2855;DHT22;1435;49.472;10.940;2023-10-13T05:06:38;16.30;99.90
2855;DHT22;1435;49.472;10.940;2023-10-13T05:11:58;16.30;99.90
2855;DHT22;1435;49.472;10.940;2023-10-13T05:17:18;16.30;99.90
2855;DHT22;1435;49.472;10.940;2023-10-13T05:22:37;16.30;99.90
2855;DHT22;1435;49.472;10.940;2023-10-13T05:27:57;16.30;99.90
2855;DHT22;1435;49.472;10.940;2023-10-13T05:33:17;16.30;99.90
2855;DHT22;1435;49.472;10.940;2023-10-13T05:38:36;16.30;99.90
2855;DHT22;1435;49.472;10.940;2023-10-13T05:43:56;16.30;99.90
2855;DHT22;1435;49.472;10.940;2023-10-13T05:49:16;16.30;99.90
2855;DHT22;1435;49.472;10.940;2023-10-13T05:54:35;16.30;99.90
2855;DHT22;1435;49.472;10.940;2023-10-13T05:59:54;16.40;99.90
2855;DHT22;1435;49.472;10.940;2023-10-13T06:05:15;16.30;99.90
2855;DHT22;1435;49.472;10.940;2023-10-13T06:10:34;16.30;99.90
2855;DHT22;1435;49.472;10.940;2023-10-13T06:15:53;16.40;99.90
2855;DHT22;1435;49.472;10.940;2023-10-13T06:21:13;16.40;99.90
2855;DHT22;1435;49.472;10.940;2023-10-13T06:26:32;16.30;99.90
2855;DHT22;1435;49.472;10.940;2023-10-13T06:31:52;16.30;99.90
2855;DHT22;1435;49.472;10.940;2023-10-13T06:36:58;16.30;99.90
2855;DHT22;1435;49.472;10.940;2023-10-13T06:42:00;16.30;99.90
2855;DHT22;1435;49.472;10.940;2023-10-13T06:47:03;16.30;99.90
2855;DHT22;1435;49.472;10.940;2023-10-13T06:52:07;16.30;99.90
2855;DHT22;1435;49.472;10.940;2023-10-13T06:57:08;16.30;99.90
2855;DHT22;1435;49.472;10.940;2023-10-13T07:02:14;16.30;99.90
2855;DHT22;1435;49.472;10.940;2023-10-13T07:07:23;16.20;99.90
2855;DHT22;1435;49.472;10.940;2023-10-13T07:12:24;16.20;99.90
2855;DHT22;1435;49.472;10.940;2023-10-13T07:17:27;16.20;99.90
2855;DHT22;1435;49.472;10.940;2023-10-13T07:22:35;16.20;99.90
2855;DHT22;1435;49.472;10.940;2023-10-13T07:27:40;16.20;99.90
2855;DHT22;1435;49.472;10.940;2023-10-13T07:32:42;16.20;99.90
2855;DHT22;1435;49.472;10.940;2023-10-13T07:37:47;16.20;99.90
2855;DHT22;1435;49.472;10.940;2023-10-13T07:42:52;16.20;99.90
2855;DHT22;1435;49.472;10.940;2023-10-13T07:48:01;16.20;99.90
2855;DHT22;1435;49.472;10.940;2023-10-13T07:53:09;16.20;99.90
2855;DHT22;1435;49.472;10.940;2023-10-13T07:58:23;16.30;99.90
2855;DHT22;1435;49.472;10.940;2023-10-13T08:03:26;16.30;99.90
2855;DHT22;1435;49.472;10.940;2023-10-13T08:08:45;16.30;99.90
2855;DHT22;1435;49.472;10.940;2023-10-13T08:13:51;16.40;99.90
2855;DHT22;1435;49.472;10.940;2023-10-13T08:18:56;16.40;99.90
2855;DHT22;1435;49.472;10.940;2023-10-13T08:24:04;16.50;99.90
2855;DHT22;1435;49.472;10.940;2023-10-13T08:29:07;16.60;99.90
2855;DHT22;1435;49.472;10.940;2023-10-13T08:34:23;16.70;99.90
2855;DHT22;1435;49.472;10.940;2023-10-13T08:39:26;16.70;99.90
2855;DHT22;1435;49.472;10.940;2023-10-13T08:44:44;16.80;99.90
2855;DHT22;1435;49.472;10.940;2023-10-13T08:49:48;16.90;99.90
2855;DHT22;1435;49.472;10.940;2023-10-13T08:54:55;17.00;99.90
2855;DHT22;1435;49.472;10.940;2023-10-13T09:00:35;17.10;99.90
2855;DHT22;1435;49.472;10.940;2023-10-13T09:05:58;17.30;99.90
2855;DHT22;1435;49.472;10.940;2023-10-13T09:11:05;17.40;99.90
2855;DHT22;1435;49.472;10.940;2023-10-13T09:16:13;17.50;99.90
2855;DHT22;1435;49.472;10.940;2023-10-13T09:21:23;17.70;99.90
2855;DHT22;1435;49.472;10.940;2023-10-13T09:26:45;17.70;99.90
2855;DHT22;1435;49.472;10.940;2023-10-13T09:31:59;17.80;99.90
2855;DHT22;1435;49.472;10.940;2023-10-13T09:37:02;18.00;99.90
2855;DHT22;1435;49.472;10.940;2023-10-13T09:42:11;18.10;99.90
2855;DHT22;1435;49.472;10.940;2023-10-13T09:47:21;18.20;99.90
2855;DHT22;1435;49.472;10.940;2023-10-13T09:52:31;18.20;99.90
2855;DHT22;1435;49.472;10.940;2023-10-13T09:57:37;18.50;99.90
2855;DHT22;1435;49.472;10.940;2023-10-13T10:02:45;18.60;99.90
2855;DHT22;1435;49.472;10.940;2023-10-13T10:07:55;18.80;99.90
2855;DHT22;1435;49.472;10.940;2023-10-13T10:13:07;19.00;99.90
2855;DHT22;1435;49.472;10.940;2023-10-13T10:18:18;19.20;99.90
2855;DHT22;1435;49.472;10.940;2023-10-13T10:23:24;19.40;99.90
2855;DHT22;1435;49.472;10.940;2023-10-13T10:28:35;19.60;99.90
2855;DHT22;1435;49.472;10.940;2023-10-13T10:33:37;19.80;99.90
2855;DHT22;1435;49.472;10.940;2023-10-13T10:38:38;19.90;99.90
2855;DHT22;1435;49.472;10.940;2023-10-13T10:43:54;20.10;99.90
2855;DHT22;1435;49.472;10.940;2023-10-13T10:49:04;20.30;99.90
2855;DHT22;1435;49.472;10.940;2023-10-13T10:54:18;20.40;99.90
2855;DHT22;1435;49.472;10.940;2023-10-13T10:59:21;20.60;99.90
2855;DHT22;1435;49.472;10.940;2023-10-13T11:04:25;20.70;99.90
2855;DHT22;1435;49.472;10.940;2023-10-13T11:09:35;20.90;99.90
2855;DHT22;1435;49.472;10.940;2023-10-13T11:14:47;21.00;99.90
2855;DHT22;1435;49.472;10.940;2023-10-13T11:19:50;21.30;99.90
2855;DHT22;1435;49.472;10.940;2023-10-13T11:24:53;21.40;99.90
2855;DHT22;1435;49.472;10.940;2023-10-13T11:29:58;21.50;99.90
2855;DHT22;1435;49.472;10.940;2023-10-13T11:35:06;21.60;99.90
2855;DHT22;1435;49.472;10.940;2023-10-13T11:40:20;21.80;99.90
2855;DHT22;1435;49.472;10.940;2023-10-13T11:45:48;21.80;99.90
2855;DHT22;1435;49.472;10.940;2023-10-13T11:50:56;22.00;99.90
2855;DHT22;1435;49.472;10.940;2023-10-13T11:55:58;22.10;99.90
2855;DHT22;1435;49.472;10.940;2023-10-13T12:01:01;22.20;99.90
2855;DHT22;1435;49.472;10.940;2023-10-13T12:06:20;22.20;99.90
2855;DHT22;1435;49.472;10.940;2023-10-13T12:11:33;22.30;99.90
2855;DHT22;1435;49.472;10.940;2023-10-13T12:16:40;22.40;99.90
2855;DHT22;1435;49.472;10.940;2023-10-13T12:21:43;22.70;99.90
2855;DHT22;1435;49.472;10.940;2023-10-13T12:26:45;22.90;99.90
2855;DHT22;1435;49.472;10.940;2023-10-13T12:31:48;22.90;99.90
2855;DHT22;1435;49.472;10.940;2023-10-13T12:37:01;22.90;99.90
2855;DHT22;1435;49.472;10.940;2023-10-13T12:42:25;22.90;99.90
2855;DHT22;1435;49.472;10.940;2023-10-13T12:47:45;22.90;99.90
2855;DHT22;1435;49.472;10.940;2023-10-13T12:53:04;22.90;99.90
2855;DHT22;1435;49.472;10.940;2023-10-13T12:58:10;22.90;99.90
2855;DHT22;1435;49.472;10.940;2023-10-13T13:03:13;22.90;99.90
2855;DHT22;1435;49.472;10.940;2023-10-13T13:08:15;23.00;99.90
2855;DHT22;1435;49.472;10.940;2023-10-13T13:13:22;23.10;99.90
2855;DHT22;1435;49.472;10.940;2023-10-13T13:18:27;23.20;99.90
2855;DHT22;1435;49.472;10.940;2023-10-13T13:23:29;23.40;99.90
2855;DHT22;1435;49.472;10.940;2023-10-13T13:28:31;23.50;99.90
2855;DHT22;1435;49.472;10.940;2023-10-13T13:33:39;23.70;99.90
2855;DHT22;1435;49.472;10.940;2023-10-13T13:38:44;23.80;99.90
2855;DHT22;1435;49.472;10.940;2023-10-13T13:43:48;23.90;99.90
2855;DHT22;1435;49.472;10.940;2023-10-13T13:48:58;24.00;99.90
2855;DHT22;1435;49.472;10.940;2023-10-13T13:54:01;24.10;99.90
2855;DHT22;1435;49.472;10.940;2023-10-13T13:59:06;24.20;99.90
2855;DHT22;1435;49.472;10.940;2023-10-13T14:04:11;24.40;99.90
2855;DHT22;1435;49.472;10.940;2023-10-13T14:09:14;24.50;99.90
2855;DHT22;1435;49.472;10.940;2023-10-13T14:14:32;24.60;99.90
2855;DHT22;1435;49.472;10.940;2023-10-13T14:19:36;24.60;99.90
2855;DHT22;1435;49.472;10.940;2023-10-13T14:24:40;24.60;99.90
2855;DHT22;1435;49.472;10.940;2023-10-13T14:29:48;24.50;99.90
2855;DHT22;1435;49.472;10.940;2023-10-13T14:34:54;24.40;99.90
2855;DHT22;1435;49.472;10.940;2023-10-13T14:39:57;24.40;99.90
2855;DHT22;1435;49.472;10.940;2023-10-13T14:45:00;24.30;99.90
2855;DHT22;1435;49.472;10.940;2023-10-13T14:50:03;24.30;99.90
2855;DHT22;1435;49.472;10.940;2023-10-13T14:55:08;24.40;99.90
2855;DHT22;1435;49.472;10.940;2023-10-13T15:00:19;24.40;99.90
2855;DHT22;1435;49.472;10.940;2023-10-13T15:05:27;24.60;99.90
2855;DHT22;1435;49.472;10.940;2023-10-13T15:10:30;24.60;99.90
2855;DHT22;1435;49.472;10.940;2023-10-13T15:15:32;24.70;99.90
2855;DHT22;1435;49.472;10.940;2023-10-13T15:20:40;24.80;99.90
2855;DHT22;1435;49.472;10.940;2023-10-13T15:25:44;24.80;99.90
2855;DHT22;1435;49.472;10.940;2023-10-13T15:30:50;24.90;99.90
2855;DHT22;1435;49.472;10.940;2023-10-13T15:35:58;24.90;99.90
2855;DHT22;1435;49.472;10.940;2023-10-13T15:41:00;24.90;99.90
2855;DHT22;1435;49.472;10.940;2023-10-13T15:46:15;24.90;99.90
2855;DHT22;1435;49.472;10.940;2023-10-13T15:51:18;24.80;99.90
2855;DHT22;1435;49.472;10.940;2023-10-13T15:56:20;24.60;99.90
2855;DHT22;1435;49.472;10.940;2023-10-13T16:01:22;24.50;99.90
2855;DHT22;1435;49.472;10.940;2023-10-13T16:06:26;24.30;99.90
2855;DHT22;1435;49.472;10.940;2023-10-13T16:11:30;24.10;99.90
2855;DHT22;1435;49.472;10.940;2023-10-13T16:16:31;23.90;99.90
2855;DHT22;1435;49.472;10.940;2023-10-13T16:21:36;23.70;99.90
2855;DHT22;1435;49.472;10.940;2023-10-13T16:26:40;23.60;99.90
2855;DHT22;1435;49.472;10.940;2023-10-13T16:31:43;23.40;99.90
2855;DHT22;1435;49.472;10.940;2023-10-13T16:36:48;23.30;99.90
2855;DHT22;1435;49.472;10.940;2023-10-13T16:41:54;23.00;99.90
2855;DHT22;1435;49.472;10.940;2023-10-13T16:46:56;22.80;99.90
2855;DHT22;1435;49.472;10.940;2023-10-13T16:52:01;22.60;99.90
2855;DHT22;1435;49.472;10.940;2023-10-13T16:57:03;22.40;99.90
2855;DHT22;1435;49.472;10.940;2023-10-13T17:02:05;22.10;99.90
2855;DHT22;1435;49.472;10.940;2023-10-13T17:07:08;21.90;99.90
2855;DHT22;1435;49.472;10.940;2023-10-13T17:12:15;21.70;99.90
2855;DHT22;1435;49.472;10.940;2023-10-13T17:17:17;21.50;99.90
2855;DHT22;1435;49.472;10.940;2023-10-13T17:22:22;21.20;99.90
2855;DHT22;1435;49.472;10.940;2023-10-13T17:27:24;21.10;99.90
2855;DHT22;1435;49.472;10.940;2023-10-13T17:32:26;21.00;99.90
2855;DHT22;1435;49.472;10.940;2023-10-13T17:37:29;20.80;99.90
2855;DHT22;1435;49.472;10.940;2023-10-13T17:42:33;20.70;99.90
2855;DHT22;1435;49.472;10.940;2023-10-13T17:47:35;20.60;99.90
2855;DHT22;1435;49.472;10.940;2023-10-13T17:52:39;20.50;99.90
2855;DHT22;1435;49.472;10.940;2023-10-13T17:57:42;20.40;99.90
2855;DHT22;1435;49.472;10.940;2023-10-13T18:02:46;20.30;99.90
2855;DHT22;1435;49.472;10.940;2023-10-13T18:07:49;20.10;99.90
2855;DHT22;1435;49.472;10.940;2023-10-13T18:12:51;20.10;99.90
2855;DHT22;1435;49.472;10.940;2023-10-13T18:17:53;19.90;99.90
2855;DHT22;1435;49.472;10.940;2023-10-13T18:22:58;19.80;99.90
2855;DHT22;1435;49.472;10.940;2023-10-13T18:28:00;19.80;99.90
2855;DHT22;1435;49.472;10.940;2023-10-13T18:33:04;19.80;99.90
2855;DHT22;1435;49.472;10.940;2023-10-13T18:38:08;19.70;99.90
2855;DHT22;1435;49.472;10.940;2023-10-13T18:43:10;19.70;99.90
2855;DHT22;1435;49.472;10.940;2023-10-13T18:48:12;19.70;99.90
2855;DHT22;1435;49.472;10.940;2023-10-13T18:53:16;19.70;99.90
2855;DHT22;1435;49.472;10.940;2023-10-13T18:58:18;19.70;99.90
2855;DHT22;1435;49.472;10.940;2023-10-13T19:03:22;19.60;99.90
2855;DHT22;1435;49.472;10.940;2023-10-13T19:08:28;19.60;99.90
2855;DHT22;1435;49.472;10.940;2023-10-13T19:13:32;19.50;99.90
2855;DHT22;1435;49.472;10.940;2023-10-13T19:18:34;19.50;99.90
2855;DHT22;1435;49.472;10.940;2023-10-13T19:23:37;19.40;99.90
2855;DHT22;1435;49.472;10.940;2023-10-13T19:28:38;19.40;99.90
2855;DHT22;1435;49.472;10.940;2023-10-13T19:33:41;19.50;99.90
2855;DHT22;1435;49.472;10.940;2023-10-13T19:38:45;19.50;99.90
2855;DHT22;1435;49.472;10.940;2023-10-13T19:43:49;19.40;99.90
2855;DHT22;1435;49.472;10.940;2023-10-13T19:48:51;19.40;99.90
2855;DHT22;1435;49.472;10.940;2023-10-13T19:53:56;19.40;99.90
2855;DHT22;1435;49.472;10.940;2023-10-13T19:58:58;19.40;99.90
2855;DHT22;1435;49.472;10.940;2023-10-13T20:04:01;19.30;99.90
2855;DHT22;1435;49.472;10.940;2023-10-13T20:09:08;19.30;99.90
2855;DHT22;1435;49.472;10.940;2023-10-13T20:14:19;19.20;99.90
2855;DHT22;1435;49.472;10.940;2023-10-13T20:19:21;19.20;99.90
2855;DHT22;1435;49.472;10.940;2023-10-13T20:24:26;19.20;99.90
2855;DHT22;1435;49.472;10.940;2023-10-13T20:29:27;19.10;99.90
2855;DHT22;1435;49.472;10.940;2023-10-13T20:34:29;19.10;99.90
2855;DHT22;1435;49.472;10.940;2023-10-13T20:39:34;19.00;99.90
2855;DHT22;1435;49.472;10.940;2023-10-13T20:44:36;19.00;99.90
2855;DHT22;1435;49.472;10.940;2023-10-13T20:49:38;19.00;99.90
2855;DHT22;1435;49.472;10.940;2023-10-13T20:54:45;19.10;99.90
2855;DHT22;1435;49.472;10.940;2023-10-13T20:59:47;19.10;99.90
2855;DHT22;1435;49.472;10.940;2023-10-13T21:04:51;19.10;99.90
2855;DHT22;1435;49.472;10.940;2023-10-13T21:09:54;19.00;99.90
2855;DHT22;1435;49.472;10.940;2023-10-13T21:14:56;19.00;99.90
2855;DHT22;1435;49.472;10.940;2023-10-13T21:19:58;18.90;99.90
2855;DHT22;1435;49.472;10.940;2023-10-13T21:25:01;18.70;99.90
2855;DHT22;1435;49.472;10.940;2023-10-13T21:30:05;18.70;99.90
2855;DHT22;1435;49.472;10.940;2023-10-13T21:35:08;18.70;99.90
2855;DHT22;1435;49.472;10.940;2023-10-13T21:40:12;18.80;99.90
2855;DHT22;1435;49.472;10.940;2023-10-13T21:45:18;18.80;99.90
2855;DHT22;1435;49.472;10.940;2023-10-13T21:50:21;18.80;99.90
2855;DHT22;1435;49.472;10.940;2023-10-13T21:55:26;18.80;99.90
2855;DHT22;1435;49.472;10.940;2023-10-13T22:00:28;18.80;99.90
2855;DHT22;1435;49.472;10.940;2023-10-13T22:05:54;18.90;99.90
2855;DHT22;1435;49.472;10.940;2023-10-13T22:10:58;18.90;99.90
2855;DHT22;1435;49.472;10.940;2023-10-13T22:16:00;18.80;99.90
2855;DHT22;1435;49.472;10.940;2023-10-13T22:21:10;18.90;99.90
2855;DHT22;1435;49.472;10.940;2023-10-13T22:26:16;18.80;99.90
2855;DHT22;1435;49.472;10.940;2023-10-13T22:31:18;18.80;99.90
2855;DHT22;1435;49.472;10.940;2023-10-13T22:36:22;18.80;99.90
2855;DHT22;1435;49.472;10.940;2023-10-13T22:41:27;18.80;99.90
2855;DHT22;1435;49.472;10.940;2023-10-13T22:46:29;18.90;99.90
2855;DHT22;1435;49.472;10.940;2023-10-13T22:51:32;18.90;99.90
2855;DHT22;1435;49.472;10.940;2023-10-13T22:56:35;18.90;99.90
2855;DHT22;1435;49.472;10.940;2023-10-13T23:01:41;18.90;99.90
2855;DHT22;1435;49.472;10.940;2023-10-13T23:06:43;18.90;99.90
2855;DHT22;1435;49.472;10.940;2023-10-13T23:11:51;18.80;99.90
2855;DHT22;1435;49.472;10.940;2023-10-13T23:16:56;18.80;99.90
2855;DHT22;1435;49.472;10.940;2023-10-13T23:21:58;18.60;99.90
2855;DHT22;1435;49.472;10.940;2023-10-13T23:27:01;18.60;99.90
2855;DHT22;1435;49.472;10.940;2023-10-13T23:32:05;18.60;99.90
2855;DHT22;1435;49.472;10.940;2023-10-13T23:37:07;18.60;99.90
2855;DHT22;1435;49.472;10.940;2023-10-13T23:42:13;18.60;99.90
2855;DHT22;1435;49.472;10.940;2023-10-13T23:47:24;18.60;99.90
2855;DHT22;1435;49.472;10.940;2023-10-13T23:52:28;18.70;99.90
2855;DHT22;1435;49.472;10.940;2023-10-13T23:57:35;18.60;99.90
